Time;durP1;ratioP1;P1;durP2;ratioP2;P2;SDS_P1;SDS_P2;PMS_P1;PMS_P2;Temp;Humidity;BMP_temperature;BMP_pressure;BME280_temperature;BME280_humidity;BME280_pressure;Samples;Min_cycle;Max_cycle;Signal;HPM_P1;HPM_P2
2022/01/18 00:00:35;;;;;;;36.65;13.50;;;4.70;99.90;;;;;;5076997;28;20286;-64
2022/01/18 00:03:00;;;;;;;28.02;12.52;;;4.80;99.90;;;;;;5076923;28;20086;-63
2022/01/18 00:05:27;;;;;;;35.20;12.57;;;4.80;99.90;;;;;;5076909;28;20408;-63
2022/01/18 00:07:53;;;;;;;33.10;12.43;;;4.70;99.90;;;;;;5076456;28;20105;-63
2022/01/18 00:10:21;;;;;;;32.63;13.05;;;4.60;99.90;;;;;;5077004;28;20021;-63
2022/01/18 00:13:24;;;;;;;38.50;13.00;;;4.60;99.90;;;;;;5077048;28;20052;-63
2022/01/18 00:18:13;;;;;;;38.45;13.10;;;4.70;99.90;;;;;;5076745;28;20037;-63
2022/01/18 00:21:18;;;;;;;40.92;13.02;;;4.70;99.90;;;;;;5077185;28;20042;-63
2022/01/18 00:23:45;;;;;;;37.80;13.70;;;4.70;99.90;;;;;;5076892;28;20044;-63
2022/01/18 00:26:11;;;;;;;39.67;13.82;;;4.70;99.90;;;;;;5076641;28;20032;-63
2022/01/18 00:28:38;;;;;;;52.80;15.13;;;4.80;99.90;;;;;;5076483;28;20346;-63
2022/01/18 00:33:50;;;;;;;45.88;15.27;;;4.70;99.90;;;;;;5076720;28;20032;-63
2022/01/18 00:36:39;;;;;;;40.13;14.38;;;4.70;99.90;;;;;;5076562;28;20059;-65
2022/01/18 00:39:08;;;;;;;34.15;13.85;;;4.60;99.90;;;;;;5075974;28;20094;-66
2022/01/18 00:41:34;;;;;;;36.58;14.75;;;4.60;99.90;;;;;;5076859;28;20386;-64
2022/01/18 00:43:59;;;;;;;29.83;14.00;;;4.50;99.90;;;;;;5076481;28;20016;-64
2022/01/18 00:46:25;;;;;;;31.95;14.20;;;4.50;99.90;;;;;;5076452;28;20047;-64
2022/01/18 00:48:55;;;;;;;25.52;14.02;;;4.40;99.90;;;;;;5075758;28;20021;-64
2022/01/18 00:51:21;;;;;;;28.95;13.43;;;4.40;99.90;;;;;;5076574;28;20277;-64
2022/01/18 00:53:48;;;;;;;33.72;14.45;;;4.40;99.90;;;;;;5075805;28;20103;-64
2022/01/18 00:56:26;;;;;;;39.83;14.90;;;4.40;99.90;;;;;;5076028;28;20384;-64
2022/01/18 00:58:53;;;;;;;49.75;13.70;;;4.40;99.90;;;;;;5075699;28;20106;-64
2022/01/18 01:01:23;;;;;;;38.97;13.95;;;4.30;99.90;;;;;;5075577;28;20033;-64
2022/01/18 01:03:50;;;;;;;30.77;13.15;;;4.20;99.90;;;;;;5079286;28;20024;-64
2022/01/18 01:06:16;;;;;;;39.40;12.60;;;4.10;99.90;;;;;;5080286;28;20380;-63
2022/01/18 01:08:42;;;;;;;27.23;13.48;;;4.10;99.90;;;;;;5079970;28;20028;-64
2022/01/18 01:11:11;;;;;;;32.55;13.55;;;4.20;99.90;;;;;;5079962;28;20277;-63
2022/01/18 01:13:42;;;;;;;25.60;12.52;;;4.20;99.90;;;;;;5079948;28;20384;-64
2022/01/18 01:34:55;;;;;;;27.83;12.95;;;4.60;99.90;;;;;;5079777;28;20044;-63
2022/01/18 01:43:11;;;;;;;22.60;12.10;;;4.30;99.90;;;;;;5079445;28;20032;-64
2022/01/18 01:45:37;;;;;;;25.83;12.23;;;4.20;99.90;;;;;;5079404;28;20346;-64
2022/01/18 01:48:04;;;;;;;21.45;11.73;;;4.10;99.90;;;;;;5079218;28;20044;-64
2022/01/18 01:50:55;;;;;;;32.60;12.25;;;4.00;99.90;;;;;;5079573;28;20075;-64
2022/01/18 01:53:24;;;;;;;48.72;13.02;;;3.90;99.90;;;;;;5079320;28;20269;-64
2022/01/18 01:55:51;;;;;;;17.85;11.65;;;4.10;99.90;;;;;;5078516;28;20039;-64
2022/01/18 01:58:19;;;;;;;42.47;13.80;;;4.20;99.90;;;;;;5079117;28;20071;-64
2022/01/18 02:00:52;;;;;;;61.42;13.93;;;4.30;99.90;;;;;;5079102;28;20051;-62
2022/01/18 02:03:18;;;;;;;;;;;4.60;99.90;;;;;;5079453;28;20067;-62
2022/01/18 02:05:44;;;;;;;53.28;13.40;;;4.70;99.90;;;;;;5061444;28;19912;-62
2022/01/18 02:08:11;;;;;;;39.17;14.98;;;4.90;99.90;;;;;;5078853;28;20036;-62
2022/01/18 02:10:39;;;;;;;53.08;15.57;;;5.10;99.90;;;;;;5079054;28;20400;-62
2022/01/18 02:13:06;;;;;;;18.30;12.80;;;5.10;99.90;;;;;;5078688;28;20029;-62
2022/01/18 02:15:37;;;;;;;40.70;13.95;;;5.00;99.90;;;;;;5077879;28;20079;-62
2022/01/18 02:23:32;;;;;;;30.25;13.27;;;5.10;99.90;;;;;;5078661;28;20040;-62
2022/01/18 02:25:58;;;;;;;22.40;12.27;;;4.90;99.90;;;;;;5078517;28;20062;-62
2022/01/18 02:28:26;;;;;;;20.27;12.70;;;4.80;99.90;;;;;;5078394;28;20036;-63
2022/01/18 02:30:53;;;;;;;32.13;12.80;;;4.80;99.90;;;;;;5077782;28;20102;-63
2022/01/18 02:33:19;;;;;;;33.03;12.40;;;4.90;99.90;;;;;;5078683;28;20056;-62
2022/01/18 02:35:46;;;;;;;37.22;13.07;;;5.00;99.90;;;;;;5078239;28;20070;-63
2022/01/18 02:38:12;;;;;;;19.48;12.18;;;5.10;99.90;;;;;;5077507;28;20041;-63
2022/01/18 02:40:38;;;;;;;22.90;12.75;;;5.10;99.90;;;;;;5078276;28;20105;-62
2022/01/18 02:45:52;;;;;;;23.15;13.52;;;4.80;99.90;;;;;;5078847;28;20028;-62
2022/01/18 02:48:19;;;;;;;19.17;12.88;;;4.70;99.90;;;;;;5077975;28;20086;-62
2022/01/18 02:50:45;;;;;;;17.70;12.23;;;4.50;99.90;;;;;;5077319;28;20025;-62
2022/01/18 02:53:11;;;;;;;22.17;13.07;;;4.30;99.90;;;;;;5078023;28;20038;-62
2022/01/18 02:55:37;;;;;;;17.67;12.20;;;4.10;99.90;;;;;;5077923;28;20028;-62
2022/01/18 02:58:08;;;;;;;23.27;12.20;;;4.00;99.90;;;;;;5077907;28;20036;-62
2022/01/18 03:03:10;;;;;;;21.80;12.18;;;3.80;99.90;;;;;;5077884;28;20032;-64
2022/01/18 03:03:28;;;;;;;37.05;12.32;;;3.80;99.90;;;;;;5078082;28;20434;-63
2022/01/18 03:05:55;;;;;;;53.97;13.95;;;3.50;99.90;;;;;;5076987;28;20111;-63
2022/01/18 03:08:21;;;;;;;31.48;14.27;;;3.40;99.90;;;;;;5077581;28;20029;-63
2022/01/18 03:10:47;;;;;;;62.53;16.88;;;3.40;99.90;;;;;;5078073;28;20257;-63
2022/01/18 03:13:13;;;;;;;35.78;15.63;;;3.40;99.90;;;;;;5077505;28;20150;-63
2022/01/18 03:15:39;;;;;;;67.93;19.45;;;3.30;99.90;;;;;;5077496;28;20025;-63
2022/01/18 03:18:07;;;;;;;29.35;18.73;;;3.40;99.90;;;;;;5077418;28;20340;-63
2022/01/18 03:20:33;;;;;;;52.80;19.55;;;3.40;99.90;;;;;;5077136;28;20021;-64
2022/01/18 03:22:59;;;;;;;50.22;19.23;;;3.50;99.90;;;;;;5077040;28;20068;-65
2022/01/18 03:25:40;;;;;;;34.00;19.42;;;3.50;99.90;;;;;;5077292;28;20415;-63
2022/01/18 03:28:08;;;;;;;43.80;19.35;;;3.60;99.90;;;;;;5077306;28;20083;-63
2022/01/18 03:30:44;;;;;;;38.08;19.70;;;3.50;99.90;;;;;;5077675;28;20052;-63
2022/01/18 03:33:15;;;;;;;32.70;19.30;;;3.60;99.90;;;;;;5077198;28;20033;-63
2022/01/18 03:35:41;;;;;;;42.60;19.60;;;3.60;99.90;;;;;;5077155;28;20102;-63
2022/01/18 03:38:08;;;;;;;42.83;19.65;;;3.80;99.90;;;;;;5076438;28;20152;-64
2022/01/18 03:40:34;;;;;;;49.05;18.52;;;3.80;99.90;;;;;;5077229;28;20093;-64
2022/01/18 03:43:01;;;;;;;48.30;15.85;;;3.60;99.90;;;;;;5077138;28;20032;-64
2022/01/18 03:45:31;;;;;;;36.95;14.27;;;3.70;99.90;;;;;;5077125;28;20035;-63
2022/01/18 03:48:00;;;;;;;35.50;13.55;;;3.70;99.90;;;;;;5076947;28;20060;-64
2022/01/18 03:50:26;;;;;;;55.67;15.30;;;3.70;99.90;;;;;;5077062;28;20479;-64
2022/01/18 03:52:53;;;;;;;65.18;14.02;;;3.80;99.90;;;;;;5077050;28;20072;-63
2022/01/18 03:55:21;;;;;;;41.72;15.85;;;3.80;99.90;;;;;;5077065;28;20434;-63
2022/01/18 03:57:48;;;;;;;62.83;14.95;;;3.90;99.90;;;;;;5076976;28;20021;-65
2022/01/18 04:00:24;;;;;;;35.20;12.85;;;4.00;99.90;;;;;;5077316;28;20034;-63
2022/01/18 04:02:52;;;;;;;50.65;14.60;;;3.90;99.90;;;;;;5077043;28;20028;-63
2022/01/18 04:05:18;;;;;;;33.72;12.38;;;3.80;99.90;;;;;;5076174;28;20020;-63
2022/01/18 04:07:45;;;;;;;24.70;13.07;;;3.50;99.90;;;;;;5076787;28;20147;-64
2022/01/18 04:10:11;;;;;;;33.38;12.98;;;3.50;99.90;;;;;;5076142;28;20312;-64
2022/01/18 04:12:39;;;;;;;56.38;14.00;;;3.60;99.90;;;;;;5077080;28;20426;-64
2022/01/18 04:15:08;;;;;;;65.93;14.95;;;3.80;99.90;;;;;;5076808;28;20062;-64
2022/01/18 04:30:43;;;;;;;34.13;13.50;;;4.40;99.90;;;;;;5076947;28;20028;-64
2022/01/18 04:33:09;;;;;;;47.47;15.38;;;4.50;99.90;;;;;;5076586;28;20047;-65
2022/01/18 04:35:34;;;;;;;31.45;14.00;;;4.60;99.90;;;;;;5076496;28;20058;-63
2022/01/18 04:38:00;;;;;;;22.83;12.85;;;4.50;99.90;;;;;;5078450;28;20028;-63
2022/01/18 04:40:29;;;;;;;39.60;13.93;;;4.30;99.90;;;;;;5080582;28;20103;-63
2022/01/18 04:50:57;;;;;;;27.80;13.52;;;4.30;99.90;;;;;;5080442;28;20039;-64
2022/01/18 04:53:23;;;;;;;30.30;14.10;;;4.30;99.90;;;;;;5080336;28;20040;-63
2022/01/18 04:55:54;;;;;;;22.95;13.18;;;4.30;99.90;;;;;;5080217;28;20028;-63
2022/01/18 04:58:22;;;;;;;31.77;13.98;;;4.20;99.90;;;;;;5080530;28;20115;-63
2022/01/18 05:00:50;;;;;;;30.67;13.35;;;4.20;99.90;;;;;;5079580;28;20029;-64
2022/01/18 05:03:16;;;;;;;35.15;13.55;;;4.30;99.90;;;;;;5080328;28;20299;-64
2022/01/18 05:05:42;;;;;;;27.75;13.70;;;4.30;99.90;;;;;;5080653;28;20304;-66
2022/01/18 05:08:13;;;;;;;30.52;13.55;;;4.30;99.90;;;;;;5079905;28;20047;-63
2022/01/18 05:10:42;;;;;;;37.67;15.40;;;4.30;99.90;;;;;;5079880;28;20343;-65
2022/01/18 05:13:30;;;;;;;36.47;14.15;;;4.50;99.90;;;;;;5079906;28;20032;-63
2022/01/18 05:16:20;;;;;;;33.92;14.60;;;4.80;99.90;;;;;;5079897;28;20090;-63
2022/01/18 05:21:26;;;;;;;36.88;14.35;;;5.00;99.90;;;;;;5079179;28;20052;-63
2022/01/18 05:23:54;;;;;;;39.92;15.68;;;5.10;99.90;;;;;;5079795;28;20058;-63
2022/01/18 05:26:24;;;;;;;35.53;15.77;;;5.10;99.90;;;;;;5079717;28;20027;-65
2022/01/18 05:28:50;;;;;;;37.00;15.05;;;5.10;99.90;;;;;;5079724;28;20043;-64
2022/01/18 05:31:16;;;;;;;37.92;15.68;;;5.20;99.90;;;;;;5079641;28;20028;-63
2022/01/18 05:33:42;;;;;;;43.15;15.57;;;5.10;99.90;;;;;;5079400;28;20043;-63
2022/01/18 05:36:09;;;;;;;37.55;15.07;;;5.10;99.90;;;;;;5080176;28;20063;-63
2022/01/18 05:38:36;;;;;;;33.33;15.32;;;5.20;99.90;;;;;;5079403;28;20033;-63
2022/01/18 05:41:07;;;;;;;27.38;14.82;;;5.30;99.90;;;;;;5078729;28;20032;-64
2022/01/18 05:43:33;;;;;;;30.67;13.18;;;5.30;99.90;;;;;;5079357;28;20285;-63
2022/01/18 05:46:00;;;;;;;30.25;13.13;;;5.00;99.90;;;;;;5079277;28;20032;-63
2022/01/18 05:48:26;;;;;;;34.65;13.75;;;4.90;99.90;;;;;;5078442;28;20051;-63
2022/01/18 05:50:54;;;;;;;35.65;13.02;;;4.90;99.90;;;;;;5078547;28;20115;-64
2022/01/18 05:53:21;;;;;;;31.50;12.88;;;4.80;99.90;;;;;;5079258;28;20047;-64
2022/01/18 05:55:47;;;;;;;30.27;13.57;;;4.80;99.90;;;;;;5079191;28;20384;-63
2022/01/18 05:58:12;;;;;;;32.05;13.00;;;4.80;99.90;;;;;;5079102;28;20070;-65
2022/01/18 06:00:40;;;;;;;40.78;12.90;;;4.70;99.90;;;;;;5078330;28;20033;-64
2022/01/18 06:03:18;;;;;;;33.42;13.38;;;4.60;99.90;;;;;;5078267;28;20124;-63
2022/01/18 06:08:28;;;;;;;38.05;13.82;;;4.80;99.90;;;;;;5078739;28;20043;-63
2022/01/18 06:10:53;;;;;;;38.80;14.25;;;4.90;99.90;;;;;;5079370;28;20281;-64
2022/01/18 06:13:19;;;;;;;38.58;13.88;;;5.00;99.90;;;;;;5078835;28;20062;-65
2022/01/18 06:15:45;;;;;;;40.00;13.85;;;5.00;99.90;;;;;;5078781;28;20075;-64
2022/01/18 06:18:11;;;;;;;44.08;15.13;;;5.00;99.90;;;;;;5078665;28;20029;-64
2022/01/18 06:20:40;;;;;;;33.28;13.43;;;5.20;99.90;;;;;;5078641;28;20289;-64
2022/01/18 06:23:06;;;;;;;38.88;14.40;;;5.30;99.90;;;;;;5078573;28;20066;-64
2022/01/18 06:25:31;;;;;;;40.88;14.00;;;5.50;99.90;;;;;;5078566;28;20309;-63
2022/01/18 06:27:57;;;;;;;54.30;15.48;;;5.60;99.90;;;;;;5078429;28;20028;-64
2022/01/18 06:30:23;;;;;;;51.92;15.00;;;5.70;99.90;;;;;;5078483;28;20033;-64
2022/01/18 06:32:49;;;;;;;55.78;15.10;;;5.90;99.90;;;;;;5078311;28;20028;-64
2022/01/18 06:35:17;;;;;;;56.13;14.77;;;6.00;99.90;;;;;;5078326;28;20056;-64
2022/01/18 06:37:43;;;;;;;54.47;14.10;;;6.00;99.90;;;;;;5078177;28;20055;-65
2022/01/18 06:40:11;;;;;;;46.60;14.32;;;6.10;99.90;;;;;;5078777;28;20256;-64
2022/01/18 06:42:37;;;;;;;55.75;16.15;;;6.10;99.90;;;;;;5078193;28;20044;-64
2022/01/18 06:45:04;;;;;;;59.63;15.38;;;6.30;99.90;;;;;;5078210;28;20299;-64
2022/01/18 06:47:30;;;;;;;52.08;15.05;;;6.30;99.90;;;;;;5078261;28;20123;-64
2022/01/18 06:49:57;;;;;;;38.60;13.27;;;6.30;99.90;;;;;;5078231;28;20028;-64
2022/01/18 06:52:23;;;;;;;47.47;14.63;;;6.20;99.90;;;;;;5078364;28;20025;-64
2022/01/18 06:54:49;;;;;;;47.58;14.57;;;6.20;99.90;;;;;;5078583;28;20033;-64
2022/01/18 06:57:15;;;;;;;56.58;14.55;;;6.10;99.90;;;;;;5077801;28;20097;-64
2022/01/18 06:59:41;;;;;;;45.50;13.52;;;6.00;99.90;;;;;;5078190;28;20032;-64
2022/01/18 07:02:07;;;;;;;55.42;13.65;;;5.90;99.90;;;;;;5076741;28;20035;-63
2022/01/18 07:04:32;;;;;;;46.53;14.93;;;5.80;99.90;;;;;;5077789;28;20044;-63
2022/01/18 07:06:58;;;;;;;45.38;13.82;;;5.70;99.90;;;;;;5077589;28;20033;-64
2022/01/18 07:09:24;;;;;;;45.03;13.65;;;5.70;99.90;;;;;;5077089;28;20039;-64
2022/01/18 07:11:51;;;;;;;48.80;12.77;;;5.70;99.90;;;;;;5077617;28;20036;-63
2022/01/18 07:14:17;;;;;;;47.20;13.45;;;5.50;99.90;;;;;;5077466;28;20052;-64
2022/01/18 07:16:43;;;;;;;50.03;14.38;;;5.50;99.90;;;;;;5077840;28;20039;-63
2022/01/18 07:19:09;;;;;;;47.08;13.88;;;5.30;99.90;;;;;;5077441;28;20104;-63
2022/01/18 07:21:35;;;;;;;46.65;14.10;;;5.30;99.90;;;;;;5077283;28;20046;-63
2022/01/18 07:24:06;;;;;;;54.95;14.38;;;5.50;99.90;;;;;;5059863;28;20032;-63
2022/01/18 07:26:32;;;;;;;53.13;14.48;;;5.50;99.90;;;;;;5077361;28;20059;-63
2022/01/18 07:28:59;;;;;;;44.17;13.43;;;5.50;99.90;;;;;;5077131;28;20041;-63
2022/01/18 07:31:24;;;;;;;53.83;14.75;;;5.60;99.90;;;;;;5076475;28;20028;-63
2022/01/18 07:33:50;;;;;;;47.63;13.27;;;5.70;99.90;;;;;;5077013;28;20261;-63
2022/01/18 07:36:16;;;;;;;51.13;15.10;;;5.80;99.90;;;;;;5077772;28;20420;-63
2022/01/18 07:38:42;;;;;;;44.45;14.65;;;5.70;99.90;;;;;;5077128;28;20041;-62
2022/01/18 07:41:09;;;;;;;50.38;13.77;;;5.80;99.90;;;;;;5077345;28;20052;-65
2022/01/18 07:43:37;;;;;;;71.85;15.65;;;5.70;99.90;;;;;;5075950;28;20101;-63
2022/01/18 07:46:03;;;;;;;54.60;14.95;;;5.80;99.90;;;;;;5077518;28;20071;-63
2022/01/18 07:48:30;;;;;;;58.63;15.85;;;5.80;99.90;;;;;;5077002;28;20385;-63
2022/01/18 07:50:58;;;;;;;56.13;14.68;;;5.70;99.90;;;;;;5076986;28;20033;-64
2022/01/18 07:53:24;;;;;;;54.30;15.38;;;5.70;99.90;;;;;;5076803;28;20346;-63
2022/01/18 07:55:51;;;;;;;50.70;15.45;;;5.50;99.90;;;;;;5076989;28;20032;-63
2022/01/18 07:58:17;;;;;;;59.13;15.70;;;5.40;99.90;;;;;;5076872;28;20036;-63
2022/01/18 08:00:43;;;;;;;64.38;16.42;;;5.40;99.90;;;;;;5076765;28;20047;-63
2022/01/18 08:03:09;;;;;;;51.92;15.15;;;5.50;99.90;;;;;;5076823;28;20036;-65
2022/01/18 08:05:37;;;;;;;64.55;15.68;;;5.50;99.90;;;;;;5077009;28;20291;-64
2022/01/18 08:08:05;;;;;;;49.28;14.05;;;5.40;99.90;;;;;;5075741;28;20071;-65
2022/01/18 08:10:31;;;;;;;69.60;16.38;;;5.40;99.90;;;;;;5076584;28;20028;-65
2022/01/18 08:13:03;;;;;;;61.63;15.63;;;5.40;99.90;;;;;;5075949;28;20308;-64
2022/01/18 08:15:38;;;;;;;61.93;16.10;;;5.40;99.90;;;;;;5076843;28;20408;-65
2022/01/18 08:18:08;;;;;;;61.15;15.20;;;5.40;99.90;;;;;;5076656;28;20074;-64
2022/01/18 08:20:34;;;;;;;55.38;15.43;;;5.50;99.90;;;;;;5077303;28;20102;-64
2022/01/18 08:23:00;;;;;;;60.83;16.33;;;5.40;99.90;;;;;;5076648;28;20052;-63
2022/01/18 08:25:26;;;;;;;66.22;15.88;;;5.40;99.90;;;;;;5076628;28;20087;-64
2022/01/18 08:27:52;;;;;;;60.88;15.23;;;5.40;99.90;;;;;;5076416;28;20028;-64
2022/01/18 08:30:19;;;;;;;57.72;15.80;;;5.60;99.90;;;;;;5075830;28;20303;-63
2022/01/18 08:32:48;;;;;;;62.97;15.10;;;5.60;99.90;;;;;;5075640;28;20082;-62
2022/01/18 08:35:14;;;;;;;66.38;15.98;;;5.60;99.90;;;;;;5076399;28;20098;-63
2022/01/18 08:37:40;;;;;;;62.05;15.85;;;5.70;99.90;;;;;;5076891;28;20041;-63
2022/01/18 08:40:07;;;;;;;62.35;16.45;;;5.80;99.90;;;;;;5076471;28;20028;-62
2022/01/18 08:42:33;;;;;;;56.92;14.88;;;5.90;99.90;;;;;;5076864;28;20036;-62
2022/01/18 08:44:59;;;;;;;66.65;16.55;;;5.90;99.90;;;;;;5075658;28;20033;-63
2022/01/18 08:47:26;;;;;;;71.50;15.60;;;6.00;99.90;;;;;;5076352;28;20024;-63
2022/01/18 08:49:53;;;;;;;55.35;14.48;;;5.70;99.90;;;;;;5076585;28;20044;-62
2022/01/18 08:52:19;;;;;;;63.47;14.98;;;5.70;99.90;;;;;;5076345;28;20029;-63
2022/01/18 08:54:45;;;;;;;56.92;14.25;;;5.80;99.90;;;;;;5076392;28;20137;-63
2022/01/18 08:57:12;;;;;;;50.95;14.15;;;6.00;99.90;;;;;;5075568;28;20054;-64
2022/01/18 08:59:40;;;;;;;63.60;15.00;;;6.20;99.90;;;;;;5076281;28;20040;-64
2022/01/18 09:02:08;;;;;;;54.83;15.07;;;6.30;99.90;;;;;;5076300;28;20067;-64
2022/01/18 09:04:35;;;;;;;66.88;16.83;;;6.40;99.90;;;;;;5076221;28;20074;-64
2022/01/18 09:07:08;;;;;;;72.38;16.23;;;6.60;99.90;;;;;;5076067;28;20033;-64
2022/01/18 09:09:40;;;;;;;71.18;15.82;;;6.90;99.90;;;;;;5075636;28;20434;-63
2022/01/18 09:12:13;;;;;;;53.30;12.10;;;6.80;99.90;;;;;;5075466;28;20024;-64
2022/01/18 09:14:39;;;;;;;66.78;16.20;;;6.80;99.90;;;;;;5076170;28;20037;-64
2022/01/18 09:17:05;;;;;;;77.72;16.40;;;6.90;99.90;;;;;;5058469;28;20039;-64
2022/01/18 09:19:31;;;;;;;62.58;15.98;;;7.00;99.90;;;;;;5075993;28;20481;-64
2022/01/18 09:21:59;;;;;;;62.35;15.55;;;7.00;99.90;;;;;;5076116;28;20405;-64
2022/01/18 09:24:25;;;;;;;73.50;15.68;;;7.10;99.90;;;;;;5078150;28;20047;-64
2022/01/18 09:26:51;;;;;;;52.00;12.85;;;7.10;99.90;;;;;;5079500;28;20040;-64
2022/01/18 09:29:17;;;;;;;74.18;15.80;;;7.20;99.90;;;;;;5078662;28;20029;-64
2022/01/18 09:31:43;;;;;;;69.93;15.80;;;7.40;99.90;;;;;;5079442;28;20050;-64
2022/01/18 09:34:09;;;;;;;74.25;16.27;;;7.40;99.90;;;;;;5079307;28;20423;-63
2022/01/18 09:36:34;;;;;;;77.15;15.90;;;7.60;99.90;;;;;;5079386;28;20033;-64
2022/01/18 09:39:00;;;;;;;70.00;15.13;;;7.50;99.90;;;;;;5078678;28;20033;-64
2022/01/18 09:41:29;;;;;;;67.70;13.95;;;7.60;99.90;;;;;;5079892;28;20348;-64
2022/01/18 09:43:56;;;;;;;58.10;13.65;;;7.60;99.90;;;;;;5079258;28;20119;-64
2022/01/18 09:46:26;;;;;;;59.55;14.77;;;7.30;99.90;;;;;;5079141;28;20032;-64
2022/01/18 09:48:56;;;;;;;64.68;14.93;;;7.50;99.90;;;;;;5078512;28;20285;-63
2022/01/18 09:51:23;;;;;;;57.83;14.02;;;7.70;99.90;;;;;;5078225;28;20082;-64
2022/01/18 09:53:50;;;;;;;63.58;15.55;;;7.90;99.90;;;;;;5078317;28;20025;-63
2022/01/18 09:56:16;;;;;;;59.28;14.93;;;7.70;99.90;;;;;;5079081;28;20033;-64
2022/01/18 09:58:44;;;;;;;61.85;15.40;;;7.70;99.90;;;;;;5078993;28;20036;-64
2022/01/18 10:01:11;;;;;;;56.20;14.75;;;7.70;99.90;;;;;;5078954;28;20419;-63
2022/01/18 10:03:38;;;;;;;40.28;13.05;;;7.80;99.90;;;;;;5078793;28;20025;-63
2022/01/18 10:06:06;;;;;;;52.22;14.80;;;8.00;99.90;;;;;;5061676;28;20063;-63
2022/01/18 10:08:33;;;;;;;42.67;12.98;;;8.20;99.90;;;;;;5078908;28;20036;-63
2022/01/18 10:11:10;;;;;;;56.60;14.10;;;8.40;99.90;;;;;;5078871;28;20289;-63
2022/01/18 10:13:37;;;;;;;45.53;13.05;;;8.50;99.90;;;;;;5078725;28;20407;-63
2022/01/18 10:16:12;;;;;;;48.08;13.38;;;8.60;99.90;;;;;;5078743;28;20066;-64
2022/01/18 10:18:49;;;;;;;59.47;14.25;;;8.50;99.90;;;;;;5077931;28;20032;-64
2022/01/18 10:21:34;;;;;;;40.22;13.55;;;7.90;99.90;;;;;;5078664;28;20318;-63
2022/01/18 10:24:12;;;;;;;53.25;14.93;;;8.00;99.90;;;;;;5078700;28;20056;-64
2022/01/18 10:26:43;;;;;;;49.42;13.60;;;8.40;99.90;;;;;;5078552;28;20021;-64
2022/01/18 10:29:10;;;;;;;35.42;12.27;;;8.80;99.90;;;;;;5078448;28;20024;-65
2022/01/18 10:31:42;;;;;;;38.85;13.30;;;9.40;99.90;;;;;;5077735;28;20327;-64
2022/01/18 10:34:14;;;;;;;35.88;11.55;;;10.90;99.90;;;;;;5077520;28;20102;-62
2022/01/18 10:36:59;;;;;;;37.10;12.45;;;12.30;99.90;;;;;;5077674;28;20094;-64
2022/01/18 10:39:32;;;;;;;30.52;11.68;;;13.20;99.90;;;;;;5078490;28;20351;-65
2022/01/18 10:41:58;;;;;;;33.20;11.75;;;13.70;99.90;;;;;;5078276;28;20312;-63
2022/01/18 10:44:24;;;;;;;28.75;10.80;;;14.30;99.90;;;;;;5078254;28;20027;-63
2022/01/18 10:46:56;;;;;;;26.77;10.52;;;14.70;99.90;;;;;;5077476;28;20033;-62
2022/01/18 10:49:36;;;;;;;33.15;11.68;;;14.90;99.90;;;;;;5077475;28;20100;-62
2022/01/18 10:52:10;;;;;;;26.73;11.27;;;15.20;99.90;;;;;;5078032;28;20279;-63
2022/01/18 10:54:43;;;;;;;30.45;12.00;;;15.50;99.90;;;;;;5078196;28;20029;-63
2022/01/18 10:57:12;;;;;;;30.58;11.60;;;15.80;99.90;;;;;;5078607;28;20016;-63
2022/01/18 10:59:40;;;;;;;28.80;12.10;;;16.20;99.90;;;;;;5077245;28;20021;-63
2022/01/18 11:02:20;;;;;;;29.55;11.40;;;16.70;99.90;;;;;;5077840;28;20032;-63
2022/01/18 11:04:48;;;;;;;29.70;12.27;;;16.80;99.90;;;;;;5077761;28;20033;-63
2022/01/18 11:07:17;;;;;;;24.08;11.60;;;15.00;99.90;;;;;;5077949;28;20269;-63
2022/01/18 11:09:44;;;;;;;31.90;11.80;;;14.40;99.90;;;;;;5077531;28;20024;-63
2022/01/18 11:12:11;;;;;;;29.77;10.93;;;15.30;99.90;;;;;;5077929;28;20285;-63
2022/01/18 11:14:43;;;;;;;27.10;11.05;;;15.00;99.90;;;;;;5077845;28;20157;-64
2022/01/18 11:17:14;;;;;;;31.30;10.52;;;15.80;99.90;;;;;;5076940;28;20035;-63
2022/01/18 11:19:40;;;;;;;28.30;11.57;;;15.90;99.90;;;;;;5077608;28;20020;-64
2022/01/18 11:22:10;;;;;;;25.63;10.13;;;16.80;99.90;;;;;;5076617;28;20021;-63
2022/01/18 11:24:39;;;;;;;22.35;8.98;;;17.50;99.90;;;;;;5077347;28;20123;-63
2022/01/18 11:27:11;;;;;;;19.58;9.35;;;16.90;99.90;;;;;;5076503;28;20115;-63
2022/01/18 11:29:37;;;;;;;15.83;8.07;;;17.50;99.90;;;;;;5077438;28;20297;-63
2022/01/18 11:32:04;;;;;;;15.25;7.15;;;18.10;99.90;;;;;;5077373;28;20120;-65
2022/01/18 11:34:59;;;;;;;15.43;6.38;;;16.80;99.90;;;;;;5077399;28;20045;-64
2022/01/18 11:37:41;;;;;;;12.60;6.45;;;17.10;99.90;;;;;;5076476;28;20041;-66
2022/01/18 11:40:09;;;;;;;15.75;7.47;;;17.90;99.90;;;;;;5077151;28;20039;-64
2022/01/18 11:42:50;;;;;;;15.65;7.20;;;18.10;99.90;;;;;;5077396;28;20342;-64
2022/01/18 11:45:25;;;;;;;19.15;7.90;;;18.10;99.90;;;;;;5077059;28;20116;-63
2022/01/18 11:48:01;;;;;;;19.75;7.78;;;17.80;99.90;;;;;;5076927;28;20072;-64
2022/01/18 11:50:29;;;;;;;16.88;8.55;;;17.50;99.90;;;;;;5076970;28;20066;-63
2022/01/18 11:53:54;;;;;;;18.65;8.15;;;16.90;99.90;;;;;;5076929;28;20350;-64
2022/01/18 11:56:37;;;;;;;17.85;7.93;;;16.10;99.90;;;;;;5075746;28;20036;-63
2022/01/18 11:59:29;;;;;;;;;;;13.70;99.90;;;;;;5077309;28;20082;-63
2022/01/18 12:02:02;;;;;;;21.67;8.70;;;12.40;99.90;;;;;;5076591;28;19909;-63
2022/01/18 12:04:49;;;;;;;19.35;9.20;;;12.10;99.90;;;;;;5077199;28;20062;-64
2022/01/18 12:07:33;;;;;;;20.73;9.20;;;11.40;99.90;;;;;;5077235;28;20039;-63
2022/01/18 12:10:02;;;;;;;18.27;8.70;;;11.50;99.90;;;;;;5076677;28;20307;-63
2022/01/18 12:12:40;;;;;;;18.35;9.02;;;12.10;99.90;;;;;;5077185;28;20086;-63
2022/01/18 12:15:26;;;;;;;19.35;8.90;;;12.80;99.90;;;;;;5076674;28;20388;-63
2022/01/18 12:17:53;;;;;;;25.38;8.40;;;13.10;99.90;;;;;;5076090;28;20044;-63
2022/01/18 12:20:39;;;;;;;23.27;8.77;;;12.40;99.90;;;;;;5076665;28;20032;-63
2022/01/18 12:23:10;;;;;;;23.50;9.13;;;12.10;99.90;;;;;;5076526;28;20040;-64
2022/01/18 12:25:54;;;;;;;20.63;8.57;;;11.50;99.90;;;;;;5076582;28;20044;-62
2022/01/18 12:28:56;;;;;;;21.95;9.40;;;11.50;99.90;;;;;;5076426;28;20127;-64
2022/01/18 12:34:35;;;;;;;21.67;8.55;;;11.00;99.90;;;;;;5085729;28;20049;-63
2022/01/18 12:37:07;;;;;;;21.95;9.05;;;11.00;99.90;;;;;;5076467;28;20108;-63
2022/01/18 12:44:20;;;;;;;23.98;8.05;;;11.30;99.90;;;;;;5076451;28;20036;-63
2022/01/18 12:45:22;;;;;;;19.85;8.48;;;11.20;99.90;;;;;;5076382;28;20047;-63
2022/01/18 12:47:57;;;;;;;22.20;8.75;;;11.20;99.90;;;;;;5076433;28;20303;-63
2022/01/18 12:50:28;;;;;;;23.08;8.65;;;11.10;99.90;;;;;;5076291;28;20051;-62
2022/01/18 12:53:08;;;;;;;27.08;10.02;;;11.40;99.90;;;;;;5076394;28;20025;-63
2022/01/18 12:55:46;;;;;;;26.65;9.02;;;11.70;99.90;;;;;;5076420;28;20028;-65
2022/01/18 12:58:38;;;;;;;20.42;8.38;;;11.90;99.90;;;;;;5076809;28;20044;-64
2022/01/18 13:01:11;;;;;;;28.85;9.18;;;11.60;99.90;;;;;;5079859;28;20101;-63
2022/01/18 13:03:48;;;;;;;24.25;9.02;;;11.10;99.90;;;;;;5080259;28;20048;-64
2022/01/18 13:06:20;;;;;;;13.55;5.78;;;11.10;99.90;;;;;;5080505;28;20111;-64
2022/01/18 13:08:50;;;;;;;17.45;5.50;;;11.20;99.90;;;;;;5079905;28;20043;-65
2022/01/18 13:11:24;;;;;;;14.48;5.35;;;10.80;99.90;;;;;;5079909;28;20395;-65
2022/01/18 13:14:05;;;;;;;11.32;4.97;;;11.00;99.90;;;;;;5079897;28;20115;-64
2022/01/18 13:27:30;;;;;;;13.50;4.60;;;13.10;99.90;;;;;;5079805;28;20043;-64
2022/01/18 13:30:15;;;;;;;18.60;5.32;;;13.10;99.90;;;;;;5079638;28;20028;-64
2022/01/18 13:32:42;;;;;;;11.82;4.53;;;12.60;99.90;;;;;;5079502;28;20093;-64
2022/01/18 13:35:09;;;;;;;11.10;4.28;;;12.50;99.90;;;;;;5079427;28;20304;-65
2022/01/18 13:37:37;;;;;;;10.85;4.15;;;12.10;99.90;;;;;;5079834;28;20053;-65
2022/01/18 13:40:09;;;;;;;11.57;4.10;;;12.10;99.90;;;;;;5079406;28;20032;-65
2022/01/18 13:42:45;;;;;;;11.98;3.20;;;11.90;99.90;;;;;;5079294;28;20032;-65
2022/01/18 13:45:18;;;;;;;12.23;3.10;;;11.90;99.90;;;;;;5078840;28;20048;-64
2022/01/18 13:47:59;;;;;;;10.90;3.13;;;12.00;99.90;;;;;;5079586;28;20028;-65
2022/01/18 13:50:31;;;;;;;11.13;2.55;;;12.00;99.90;;;;;;5079336;28;20027;-65
2022/01/18 13:53:12;;;;;;;13.47;2.33;;;11.80;99.90;;;;;;5078447;28;20036;-65
2022/01/18 13:55:44;;;;;;;10.52;3.00;;;11.60;99.90;;;;;;5078571;28;20037;-65
2022/01/18 13:58:10;;;;;;;13.98;3.47;;;10.90;99.90;;;;;;5079129;28;20273;-65
2022/01/18 14:00:36;;;;;;;10.02;3.10;;;10.90;99.90;;;;;;5078317;28;20090;-65
2022/01/18 14:03:02;;;;;;;11.68;3.35;;;10.90;99.90;;;;;;5078669;28;20404;-64
2022/01/18 14:05:28;;;;;;;10.90;4.15;;;10.80;99.90;;;;;;5079156;28;20292;-65
2022/01/18 14:08:06;;;;;;;11.75;3.90;;;11.00;99.90;;;;;;5078833;28;20392;-66
2022/01/18 14:10:32;;;;;;;10.90;3.10;;;11.10;99.90;;;;;;5078097;28;20116;-65